Terminal Aerodrome Forecast
Issued by NWS

Home | Current Version | Previous Version | Text Only | Print | Product List | Glossary Off
Versions: 1 2 3 4 5 6 7 8 9 10 11 12 13 14 15 16 17 18 19 20 21 22 23 24 25 26

000
FTUS43 KABR 272216 AAA
TAFATY
TAF AMD
KATY 272216Z 2722/2818 07022G31KT P6SM -RA OVC010
      TEMPO 2722/2801 OVC008
     FM280700 06015KT P6SM -SHRA OVC020
     FM281300 05011KT 4SM -SHRASN OVC015
     FM281600 05009KT P6SM -SHRA OVC025=

USA.gov is the U.S. government's official web portal to all federal, state and local government web resources and services.